sensor_id;sensor_type;location;lat;lon;timestamp;pressure;altitude;pressure_sealevel;temperature;humidity
76858;BME280;65830;0.000;0.000;2023-06-19T00:01:51;99582.16;;;21.09;59.62
76858;BME280;65830;0.000;0.000;2023-06-19T00:04:17;99588.81;;;21.06;59.57
76858;BME280;65830;0.000;0.000;2023-06-19T00:06:42;99581.53;;;21.07;59.58
76858;BME280;65830;0.000;0.000;2023-06-19T00:09:08;99589.44;;;21.01;59.62
76858;BME280;65830;0.000;0.000;2023-06-19T00:11:34;99580.94;;;20.98;59.89
76858;BME280;65830;0.000;0.000;2023-06-19T00:13:59;99585.09;;;20.94;59.97
76858;BME280;65830;0.000;0.000;2023-06-19T00:16:26;99586.97;;;20.93;60.02
76858;BME280;65830;0.000;0.000;2023-06-19T00:18:51;99588.63;;;20.88;60.10
76858;BME280;65830;0.000;0.000;2023-06-19T00:21:24;99584.03;;;20.88;60.12
76858;BME280;65830;0.000;0.000;2023-06-19T00:23:50;99601.69;;;20.84;59.94
76858;BME280;65830;0.000;0.000;2023-06-19T00:26:16;99592.78;;;20.83;60.00
76858;BME280;65830;0.000;0.000;2023-06-19T00:28:42;99594.41;;;20.85;60.11
76858;BME280;65830;0.000;0.000;2023-06-19T00:31:10;99595.66;;;20.82;60.00
76858;BME280;65830;0.000;0.000;2023-06-19T00:33:39;99592.75;;;20.77;60.09
76858;BME280;65830;0.000;0.000;2023-06-19T00:36:08;99596.91;;;20.79;60.05
76858;BME280;65830;0.000;0.000;2023-06-19T00:38:34;99582.59;;;20.79;60.02
76858;BME280;65830;0.000;0.000;2023-06-19T00:41:00;99598.75;;;20.79;59.91
76858;BME280;65830;0.000;0.000;2023-06-19T00:43:26;99599.59;;;20.73;59.99
76858;BME280;65830;0.000;0.000;2023-06-19T00:45:51;99604.97;;;20.73;60.03
76858;BME280;65830;0.000;0.000;2023-06-19T00:48:17;99596.06;;;20.72;60.05
76858;BME280;65830;0.000;0.000;2023-06-19T00:50:43;99606.25;;;20.70;60.25
76858;BME280;65830;0.000;0.000;2023-06-19T00:53:09;99592.34;;;20.73;60.09
76858;BME280;65830;0.000;0.000;2023-06-19T00:55:35;99587.38;;;20.70;60.02
76858;BME280;65830;0.000;0.000;2023-06-19T00:58:01;99608.09;;;20.63;60.11
76858;BME280;65830;0.000;0.000;2023-06-19T01:00:28;99598.16;;;20.63;60.06
76858;BME280;65830;0.000;0.000;2023-06-19T01:02:56;99598.28;;;20.55;60.03
76858;BME280;65830;0.000;0.000;2023-06-19T01:05:21;99595.81;;;20.54;60.16
76858;BME280;65830;0.000;0.000;2023-06-19T01:10:24;99610.31;;;20.53;60.00
76858;BME280;65830;0.000;0.000;2023-06-19T01:12:53;99593.53;;;20.51;60.07
76858;BME280;65830;0.000;0.000;2023-06-19T01:15:22;99592.50;;;20.52;59.98
76858;BME280;65830;0.000;0.000;2023-06-19T01:17:48;99592.28;;;20.53;59.72
76858;BME280;65830;0.000;0.000;2023-06-19T01:20:14;99582.56;;;20.52;59.97
76858;BME280;65830;0.000;0.000;2023-06-19T01:22:40;99584.19;;;20.53;59.65
76858;BME280;65830;0.000;0.000;2023-06-19T01:25:09;99582.31;;;20.47;59.94
76858;BME280;65830;0.000;0.000;2023-06-19T01:27:35;99578.38;;;20.36;60.13
76858;BME280;65830;0.000;0.000;2023-06-19T01:30:01;99593.53;;;20.44;59.92
76858;BME280;65830;0.000;0.000;2023-06-19T01:34:55;99588.13;;;20.44;59.82
76858;BME280;65830;0.000;0.000;2023-06-19T01:37:22;99589.34;;;20.41;59.99
76858;BME280;65830;0.000;0.000;2023-06-19T01:39:52;99590.59;;;20.39;59.93
76858;BME280;65830;0.000;0.000;2023-06-19T01:42:18;99577.75;;;20.41;59.73
76858;BME280;65830;0.000;0.000;2023-06-19T01:44:44;99590.84;;;20.44;59.83
76858;BME280;65830;0.000;0.000;2023-06-19T01:47:10;99590.59;;;20.39;59.80
76858;BME280;65830;0.000;0.000;2023-06-19T01:49:36;99577.75;;;20.34;59.99
76858;BME280;65830;0.000;0.000;2023-06-19T01:52:02;99589.56;;;20.33;59.90
76858;BME280;65830;0.000;0.000;2023-06-19T01:54:28;99580.88;;;20.38;59.63
76858;BME280;65830;0.000;0.000;2023-06-19T01:56:54;99581.94;;;20.43;59.36
76858;BME280;65830;0.000;0.000;2023-06-19T01:59:19;99576.75;;;20.42;59.33
76858;BME280;65830;0.000;0.000;2023-06-19T02:01:46;99583.16;;;20.41;59.22
76858;BME280;65830;0.000;0.000;2023-06-19T02:04:12;99586.47;;;20.43;59.25
76858;BME280;65830;0.000;0.000;2023-06-19T02:06:37;99581.50;;;20.47;59.17
76858;BME280;65830;0.000;0.000;2023-06-19T02:09:03;99591.03;;;20.49;59.01
76858;BME280;65830;0.000;0.000;2023-06-19T02:11:29;99584.19;;;20.53;58.75
76858;BME280;65830;0.000;0.000;2023-06-19T02:13:54;99581.50;;;20.53;58.54
76858;BME280;65830;0.000;0.000;2023-06-19T02:16:20;99589.00;;;20.58;58.53
76858;BME280;65830;0.000;0.000;2023-06-19T02:18:47;99594.38;;;20.58;58.51
76858;BME280;65830;0.000;0.000;2023-06-19T02:21:13;99590.22;;;20.55;58.43
76858;BME280;65830;0.000;0.000;2023-06-19T02:23:39;99589.81;;;20.58;58.11
76858;BME280;65830;0.000;0.000;2023-06-19T02:26:06;99596.91;;;20.59;58.12
76858;BME280;65830;0.000;0.000;2023-06-19T02:28:31;99605.97;;;20.58;58.28
76858;BME280;65830;0.000;0.000;2023-06-19T02:30:57;99607.25;;;20.62;58.20
76858;BME280;65830;0.000;0.000;2023-06-19T02:33:22;99597.31;;;20.63;58.14
76858;BME280;65830;0.000;0.000;2023-06-19T02:35:48;99594.84;;;20.61;57.99
76858;BME280;65830;0.000;0.000;2023-06-19T02:38:15;99594.84;;;20.61;57.88
76858;BME280;65830;0.000;0.000;2023-06-19T02:40:40;99601.25;;;20.60;57.96
76858;BME280;65830;0.000;0.000;2023-06-19T02:43:06;99600.44;;;20.60;57.67
76858;BME280;65830;0.000;0.000;2023-06-19T02:45:32;99602.31;;;20.59;57.77
76858;BME280;65830;0.000;0.000;2023-06-19T02:47:57;99602.50;;;20.65;57.65
76858;BME280;65830;0.000;0.000;2023-06-19T02:50:23;99599.59;;;20.66;57.51
76858;BME280;65830;0.000;0.000;2023-06-19T02:52:48;99595.84;;;20.67;57.52
76858;BME280;65830;0.000;0.000;2023-06-19T02:55:14;99605.81;;;20.67;57.30
76858;BME280;65830;0.000;0.000;2023-06-19T02:57:39;99606.88;;;20.66;57.31
76858;BME280;65830;0.000;0.000;2023-06-19T03:00:05;99609.56;;;20.66;57.15
76858;BME280;65830;0.000;0.000;2023-06-19T03:02:31;99605.81;;;20.67;57.29
76858;BME280;65830;0.000;0.000;2023-06-19T03:04:59;99605.63;;;20.68;56.96
76858;BME280;65830;0.000;0.000;2023-06-19T03:07:24;99608.31;;;20.61;57.36
76858;BME280;65830;0.000;0.000;2023-06-19T03:09:54;99600.22;;;20.61;57.43
76858;BME280;65830;0.000;0.000;2023-06-19T03:12:20;99600.59;;;20.58;57.64
76858;BME280;65830;0.000;0.000;2023-06-19T03:14:46;99607.22;;;20.56;57.71
76858;BME280;65830;0.000;0.000;2023-06-19T03:17:12;99612.19;;;20.52;57.69
76858;BME280;65830;0.000;0.000;2023-06-19T03:19:38;99618.59;;;20.51;57.79
76858;BME280;65830;0.000;0.000;2023-06-19T03:22:03;99609.91;;;20.49;58.02
76858;BME280;65830;0.000;0.000;2023-06-19T03:24:29;99606.78;;;20.39;58.34
76858;BME280;65830;0.000;0.000;2023-06-19T03:27:09;99604.91;;;20.39;58.32
76858;BME280;65830;0.000;0.000;2023-06-19T03:29:34;99621.31;;;20.38;58.36
76858;BME280;65830;0.000;0.000;2023-06-19T03:32:04;99618.38;;;20.33;58.65
76858;BME280;65830;0.000;0.000;2023-06-19T03:34:32;99617.34;;;20.34;58.83
76858;BME280;65830;0.000;0.000;2023-06-19T03:37:01;99609.22;;;20.27;58.98
76858;BME280;65830;0.000;0.000;2023-06-19T03:39:27;99613.81;;;20.27;59.05
76858;BME280;65830;0.000;0.000;2023-06-19T03:41:57;99616.09;;;20.30;58.95
76858;BME280;65830;0.000;0.000;2023-06-19T03:44:23;99623.94;;;20.24;59.18
76858;BME280;65830;0.000;0.000;2023-06-19T03:46:48;99610.88;;;20.21;59.17
76858;BME280;65830;0.000;0.000;2023-06-19T03:49:15;99617.13;;;20.29;59.09
76858;BME280;65830;0.000;0.000;2023-06-19T03:51:41;99626.22;;;20.28;58.92
76858;BME280;65830;0.000;0.000;2023-06-19T03:54:06;99622.72;;;20.27;59.05
76858;BME280;65830;0.000;0.000;2023-06-19T03:56:33;99621.88;;;20.33;59.06
76858;BME280;65830;0.000;0.000;2023-06-19T03:58:58;99620.44;;;20.31;59.12
76858;BME280;65830;0.000;0.000;2023-06-19T04:01:24;99615.88;;;20.31;59.14
76858;BME280;65830;0.000;0.000;2023-06-19T04:03:49;99612.16;;;20.39;58.94
76858;BME280;65830;0.000;0.000;2023-06-19T04:06:15;99606.00;;;20.52;58.03
76858;BME280;65830;0.000;0.000;2023-06-19T04:08:41;99598.53;;;20.67;57.48
76858;BME280;65830;0.000;0.000;2023-06-19T04:11:11;99606.63;;;20.67;57.76
76858;BME280;65830;0.000;0.000;2023-06-19T04:13:36;99609.31;;;20.67;57.74
76858;BME280;65830;0.000;0.000;2023-06-19T04:16:02;99602.50;;;20.71;57.42
76858;BME280;65830;0.000;0.000;2023-06-19T04:18:28;99601.06;;;20.75;57.44
76858;BME280;65830;0.000;0.000;2023-06-19T04:20:55;99602.50;;;20.78;57.49
76858;BME280;65830;0.000;0.000;2023-06-19T04:23:20;99597.53;;;20.75;57.17
76858;BME280;65830;0.000;0.000;2023-06-19T04:25:46;99602.31;;;20.79;57.18
76858;BME280;65830;0.000;0.000;2023-06-19T04:28:11;99595.25;;;20.78;57.37
76858;BME280;65830;0.000;0.000;2023-06-19T04:30:37;99596.06;;;20.79;57.34
76858;BME280;65830;0.000;0.000;2023-06-19T04:33:04;99600.84;;;20.83;56.94
76858;BME280;65830;0.000;0.000;2023-06-19T04:35:31;99618.47;;;20.86;56.75
76858;BME280;65830;0.000;0.000;2023-06-19T04:37:57;99605.59;;;20.95;56.54
76858;BME280;65830;0.000;0.000;2023-06-19T04:40:26;99614.31;;;20.97;56.10
76858;BME280;65830;0.000;0.000;2023-06-19T04:42:52;99606.88;;;21.06;56.14
76858;BME280;65830;0.000;0.000;2023-06-19T04:45:19;99606.84;;;21.12;56.11
76858;BME280;65830;0.000;0.000;2023-06-19T04:47:44;99610.59;;;21.18;56.02
76858;BME280;65830;0.000;0.000;2023-06-19T04:50:10;99613.91;;;21.13;55.89
76858;BME280;65830;0.000;0.000;2023-06-19T04:52:35;99607.06;;;21.17;55.80
76858;BME280;65830;0.000;0.000;2023-06-19T04:55:01;99614.75;;;21.14;55.60
76858;BME280;65830;0.000;0.000;2023-06-19T04:57:26;99606.84;;;21.26;55.37
76858;BME280;65830;0.000;0.000;2023-06-19T04:59:52;99599.38;;;21.28;55.60
76858;BME280;65830;0.000;0.000;2023-06-19T05:02:17;99610.16;;;21.41;54.49
76858;BME280;65830;0.000;0.000;2023-06-19T05:04:43;99605.38;;;21.50;54.51
76858;BME280;65830;0.000;0.000;2023-06-19T05:07:09;99610.75;;;21.56;54.85
76858;BME280;65830;0.000;0.000;2023-06-19T05:09:36;99612.81;;;21.61;54.64
76858;BME280;65830;0.000;0.000;2023-06-19T05:12:01;99608.81;;;21.70;54.50
76858;BME280;65830;0.000;0.000;2023-06-19T05:14:27;99611.94;;;21.74;54.28
76858;BME280;65830;0.000;0.000;2023-06-19T05:16:52;99609.66;;;21.77;53.54
76858;BME280;65830;0.000;0.000;2023-06-19T05:19:18;99615.00;;;21.84;53.52
76858;BME280;65830;0.000;0.000;2023-06-19T05:21:43;99614.41;;;21.89;53.37
76858;BME280;65830;0.000;0.000;2023-06-19T05:24:09;99620.81;;;21.94;53.60
76858;BME280;65830;0.000;0.000;2023-06-19T05:26:34;99614.81;;;21.92;53.39
76858;BME280;65830;0.000;0.000;2023-06-19T05:29:00;99625.16;;;21.95;53.22
76858;BME280;65830;0.000;0.000;2023-06-19T05:31:25;99612.06;;;21.99;53.44
76858;BME280;65830;0.000;0.000;2023-06-19T05:33:51;99621.78;;;22.07;53.43
76858;BME280;65830;0.000;0.000;2023-06-19T05:36:16;99614.91;;;22.11;52.87
76858;BME280;65830;0.000;0.000;2023-06-19T05:38:42;99616.53;;;22.18;52.76
76858;BME280;65830;0.000;0.000;2023-06-19T05:41:07;99616.72;;;22.24;53.06
76858;BME280;65830;0.000;0.000;2023-06-19T05:43:33;99618.19;;;22.26;52.84
76858;BME280;65830;0.000;0.000;2023-06-19T05:45:58;99621.88;;;22.32;52.67
76858;BME280;65830;0.000;0.000;2023-06-19T05:48:27;99621.47;;;22.35;52.39
76858;BME280;65830;0.000;0.000;2023-06-19T05:50:53;99618.34;;;22.38;52.08
76858;BME280;65830;0.000;0.000;2023-06-19T05:53:18;99622.69;;;22.39;52.18
76858;BME280;65830;0.000;0.000;2023-06-19T05:55:44;99620.53;;;22.54;52.12
76858;BME280;65830;0.000;0.000;2023-06-19T05:58:09;99628.97;;;22.65;51.88
76858;BME280;65830;0.000;0.000;2023-06-19T06:00:35;99626.28;;;22.65;52.07
76858;BME280;65830;0.000;0.000;2023-06-19T06:03:00;99617.72;;;22.68;51.80
76858;BME280;65830;0.000;0.000;2023-06-19T06:05:26;99623.28;;;22.73;51.09
76858;BME280;65830;0.000;0.000;2023-06-19T06:07:53;99629.31;;;22.75;50.98
76858;BME280;65830;0.000;0.000;2023-06-19T06:10:19;99635.34;;;22.77;50.55
76858;BME280;65830;0.000;0.000;2023-06-19T06:12:45;99623.22;;;22.86;51.15
76858;BME280;65830;0.000;0.000;2023-06-19T06:15:10;99627.72;;;22.92;50.16
76858;BME280;65830;0.000;0.000;2023-06-19T06:17:36;99621.84;;;23.02;49.93
76858;BME280;65830;0.000;0.000;2023-06-19T06:20:02;99628.47;;;23.06;49.15
76858;BME280;65830;0.000;0.000;2023-06-19T06:22:29;99635.50;;;23.14;49.03
76858;BME280;65830;0.000;0.000;2023-06-19T06:25:00;99632.19;;;23.12;49.24
76858;BME280;65830;0.000;0.000;2023-06-19T06:27:25;99627.19;;;23.09;48.48
76858;BME280;65830;0.000;0.000;2023-06-19T06:29:51;99618.06;;;23.10;48.94
76858;BME280;65830;0.000;0.000;2023-06-19T06:32:17;99619.56;;;23.24;49.17
76858;BME280;65830;0.000;0.000;2023-06-19T06:34:43;99624.22;;;23.17;48.30
76858;BME280;65830;0.000;0.000;2023-06-19T06:37:08;99629.59;;;23.24;48.83
76858;BME280;65830;0.000;0.000;2023-06-19T06:39:34;99621.59;;;23.29;48.70
76858;BME280;65830;0.000;0.000;2023-06-19T06:41:59;99626.41;;;23.27;48.59
76858;BME280;65830;0.000;0.000;2023-06-19T06:44:26;99629.50;;;23.30;48.50
76858;BME280;65830;0.000;0.000;2023-06-19T06:46:51;99619.66;;;23.36;48.49
76858;BME280;65830;0.000;0.000;2023-06-19T06:49:17;99625.78;;;23.50;48.51
76858;BME280;65830;0.000;0.000;2023-06-19T06:51:42;99622.53;;;23.41;48.26
76858;BME280;65830;0.000;0.000;2023-06-19T06:54:08;99632.91;;;23.44;48.17
76858;BME280;65830;0.000;0.000;2023-06-19T06:56:33;99628.41;;;23.56;47.34
76858;BME280;65830;0.000;0.000;2023-06-19T06:58:59;99628.19;;;23.58;48.08
76858;BME280;65830;0.000;0.000;2023-06-19T07:01:24;99627.44;;;23.69;47.92
76858;BME280;65830;0.000;0.000;2023-06-19T07:03:50;99635.50;;;23.76;48.05
76858;BME280;65830;0.000;0.000;2023-06-19T07:06:15;99636.97;;;23.78;47.46
76858;BME280;65830;0.000;0.000;2023-06-19T07:08:40;99631.56;;;23.78;47.16
76858;BME280;65830;0.000;0.000;2023-06-19T07:11:06;99634.09;;;23.92;46.71
76858;BME280;65830;0.000;0.000;2023-06-19T07:13:32;99632.19;;;23.92;46.33
76858;BME280;65830;0.000;0.000;2023-06-19T07:15:59;99631.38;;;23.92;46.39
76858;BME280;65830;0.000;0.000;2023-06-19T07:18:26;99638.91;;;24.08;46.54
76858;BME280;65830;0.000;0.000;2023-06-19T07:20:52;99646.41;;;24.06;45.92
76858;BME280;65830;0.000;0.000;2023-06-19T07:23:18;99640.38;;;24.04;45.20
76858;BME280;65830;0.000;0.000;2023-06-19T07:25:45;99644.00;;;24.16;45.75
76858;BME280;65830;0.000;0.000;2023-06-19T07:28:10;99638.94;;;24.20;45.99
76858;BME280;65830;0.000;0.000;2023-06-19T07:30:35;99642.63;;;24.26;45.27
76858;BME280;65830;0.000;0.000;2023-06-19T07:33:01;99636.75;;;24.29;45.39
76858;BME280;65830;0.000;0.000;2023-06-19T07:35:26;99641.03;;;24.36;45.30
76858;BME280;65830;0.000;0.000;2023-06-19T07:37:52;99638.38;;;24.48;45.25
76858;BME280;65830;0.000;0.000;2023-06-19T07:40:17;99643.72;;;24.55;45.02
76858;BME280;65830;0.000;0.000;2023-06-19T07:42:43;99629.00;;;24.63;44.74
76858;BME280;65830;0.000;0.000;2023-06-19T07:45:08;99620.88;;;24.74;44.85
76858;BME280;65830;0.000;0.000;2023-06-19T07:47:34;99630.34;;;24.84;44.90
76858;BME280;65830;0.000;0.000;2023-06-19T07:50:00;99624.94;;;24.84;44.49
76858;BME280;65830;0.000;0.000;2023-06-19T07:52:25;99629.50;;;24.83;44.04
76858;BME280;65830;0.000;0.000;2023-06-19T07:54:55;99630.13;;;24.97;43.78
76858;BME280;65830;0.000;0.000;2023-06-19T07:57:21;99630.72;;;24.99;44.42
76858;BME280;65830;0.000;0.000;2023-06-19T07:59:48;99639.38;;;25.20;43.77
76858;BME280;65830;0.000;0.000;2023-06-19T08:02:14;99632.06;;;25.32;43.42
76858;BME280;65830;0.000;0.000;2023-06-19T08:04:39;99636.09;;;25.41;43.89
76858;BME280;65830;0.000;0.000;2023-06-19T08:07:05;99640.22;;;25.44;42.38
76858;BME280;65830;0.000;0.000;2023-06-19T08:09:30;99641.41;;;25.36;42.17
76858;BME280;65830;0.000;0.000;2023-06-19T08:11:56;99651.44;;;25.24;42.09
76858;BME280;65830;0.000;0.000;2023-06-19T08:14:22;99636.78;;;25.25;41.57
76858;BME280;65830;0.000;0.000;2023-06-19T08:16:47;99632.88;;;25.32;41.82
76858;BME280;65830;0.000;0.000;2023-06-19T08:19:13;99637.50;;;25.44;41.15
76858;BME280;65830;0.000;0.000;2023-06-19T08:21:38;99643.16;;;25.54;41.47
76858;BME280;65830;0.000;0.000;2023-06-19T08:24:04;99631.34;;;25.60;41.40
76858;BME280;65830;0.000;0.000;2023-06-19T08:26:30;99654.00;;;25.66;41.25
76858;BME280;65830;0.000;0.000;2023-06-19T08:28:55;99639.50;;;25.48;41.25
76858;BME280;65830;0.000;0.000;2023-06-19T08:31:20;99646.81;;;25.48;41.63
76858;BME280;65830;0.000;0.000;2023-06-19T08:33:54;99635.47;;;25.63;41.42
76858;BME280;65830;0.000;0.000;2023-06-19T08:36:22;99639.97;;;25.69;40.31
76858;BME280;65830;0.000;0.000;2023-06-19T08:38:48;99633.44;;;25.82;40.12
76858;BME280;65830;0.000;0.000;2023-06-19T08:41:15;99634.84;;;25.96;39.94
76858;BME280;65830;0.000;0.000;2023-06-19T08:43:41;99634.03;;;25.95;40.13
76858;BME280;65830;0.000;0.000;2023-06-19T08:46:25;99644.13;;;26.12;39.96
76858;BME280;65830;0.000;0.000;2023-06-19T08:48:51;99646.41;;;26.03;39.22
76858;BME280;65830;0.000;0.000;2023-06-19T08:51:19;99642.34;;;26.18;39.64
76858;BME280;65830;0.000;0.000;2023-06-19T08:53:55;99638.56;;;26.19;38.19
76858;BME280;65830;0.000;0.000;2023-06-19T08:56:20;99633.25;;;26.12;37.98
76858;BME280;65830;0.000;0.000;2023-06-19T08:58:46;99635.03;;;26.06;38.22
76858;BME280;65830;0.000;0.000;2023-06-19T09:01:13;99633.00;;;26.13;38.88
76858;BME280;65830;0.000;0.000;2023-06-19T09:03:41;99637.34;;;26.26;39.15
76858;BME280;65830;0.000;0.000;2023-06-19T09:06:07;99626.47;;;26.26;38.55
76858;BME280;65830;0.000;0.000;2023-06-19T09:08:33;99637.59;;;26.25;38.54
76858;BME280;65830;0.000;0.000;2023-06-19T09:10:59;99629.31;;;26.20;38.89
76858;BME280;65830;0.000;0.000;2023-06-19T09:13:26;99624.88;;;26.42;39.25
76858;BME280;65830;0.000;0.000;2023-06-19T09:16:07;99633.34;;;26.46;37.63
76858;BME280;65830;0.000;0.000;2023-06-19T09:18:45;99631.75;;;26.33;37.74
76858;BME280;65830;0.000;0.000;2023-06-19T09:21:15;99618.16;;;26.33;38.20
76858;BME280;65830;0.000;0.000;2023-06-19T09:23:40;99617.44;;;26.38;37.87
76858;BME280;65830;0.000;0.000;2023-06-19T09:26:07;99612.16;;;26.31;38.59
76858;BME280;65830;0.000;0.000;2023-06-19T09:28:33;99615.72;;;26.48;38.29
76858;BME280;65830;0.000;0.000;2023-06-19T09:31:00;99614.00;;;26.42;36.45
76858;BME280;65830;0.000;0.000;2023-06-19T09:33:26;99602.81;;;26.27;40.36
76858;BME280;65830;0.000;0.000;2023-06-19T09:35:52;99608.22;;;26.39;38.23
76858;BME280;65830;0.000;0.000;2023-06-19T09:38:18;99610.75;;;26.45;38.19
76858;BME280;65830;0.000;0.000;2023-06-19T09:40:47;99602.44;;;26.52;39.12
76858;BME280;65830;0.000;0.000;2023-06-19T09:43:13;99601.63;;;26.51;36.03
76858;BME280;65830;0.000;0.000;2023-06-19T09:45:41;99606.22;;;26.63;36.61
76858;BME280;65830;0.000;0.000;2023-06-19T09:48:06;99598.88;;;26.63;36.87
76858;BME280;65830;0.000;0.000;2023-06-19T09:50:50;99603.56;;;26.68;36.04
76858;BME280;65830;0.000;0.000;2023-06-19T09:53:18;99596.47;;;26.67;36.27
76858;BME280;65830;0.000;0.000;2023-06-19T09:55:44;99595.19;;;26.86;36.43
76858;BME280;65830;0.000;0.000;2023-06-19T09:58:09;99597.06;;;27.03;36.45
76858;BME280;65830;0.000;0.000;2023-06-19T10:00:35;99595.75;;;26.88;36.74
76858;BME280;65830;0.000;0.000;2023-06-19T10:03:02;99590.06;;;26.90;37.92
76858;BME280;65830;0.000;0.000;2023-06-19T10:05:30;99589.69;;;27.03;36.59
76858;BME280;65830;0.000;0.000;2023-06-19T10:07:55;99589.38;;;27.17;36.21
76858;BME280;65830;0.000;0.000;2023-06-19T10:10:28;99583.53;;;27.08;37.35
76858;BME280;65830;0.000;0.000;2023-06-19T10:12:57;99574.13;;;26.99;37.04
76858;BME280;65830;0.000;0.000;2023-06-19T10:15:29;99582.53;;;27.14;36.68
76858;BME280;65830;0.000;0.000;2023-06-19T10:18:01;99582.28;;;27.32;36.16
76858;BME280;65830;0.000;0.000;2023-06-19T10:23:01;99568.91;;;26.97;38.37
76858;BME280;65830;0.000;0.000;2023-06-19T10:25:29;99572.56;;;27.03;37.49
76858;BME280;65830;0.000;0.000;2023-06-19T10:27:55;99572.56;;;27.03;37.37
76858;BME280;65830;0.000;0.000;2023-06-19T10:30:21;99573.78;;;27.12;36.48
76858;BME280;65830;0.000;0.000;2023-06-19T10:32:47;99572.47;;;27.31;35.31
76858;BME280;65830;0.000;0.000;2023-06-19T10:35:13;99566.91;;;27.43;34.50
76858;BME280;65830;0.000;0.000;2023-06-19T10:37:39;99564.59;;;27.35;37.42
76858;BME280;65830;0.000;0.000;2023-06-19T10:40:05;99561.81;;;27.30;36.65
76858;BME280;65830;0.000;0.000;2023-06-19T10:42:33;99555.81;;;27.50;35.06
76858;BME280;65830;0.000;0.000;2023-06-19T10:45:02;99564.47;;;27.69;34.92
76858;BME280;65830;0.000;0.000;2023-06-19T10:47:27;99552.25;;;27.71;34.69
76858;BME280;65830;0.000;0.000;2023-06-19T10:49:54;99551.94;;;27.46;36.71
76858;BME280;65830;0.000;0.000;2023-06-19T10:52:19;99552.06;;;27.56;34.98
76858;BME280;65830;0.000;0.000;2023-06-19T10:54:45;99541.59;;;27.70;34.80
76858;BME280;65830;0.000;0.000;2023-06-19T10:57:11;99545.97;;;27.71;35.44
76858;BME280;65830;0.000;0.000;2023-06-19T10:59:39;99545.59;;;27.84;36.15
76858;BME280;65830;0.000;0.000;2023-06-19T11:02:05;99539.44;;;27.94;35.75
76858;BME280;65830;0.000;0.000;2023-06-19T11:04:31;99545.69;;;28.17;35.21
76858;BME280;65830;0.000;0.000;2023-06-19T11:06:56;99531.63;;;28.30;34.83
76858;BME280;65830;0.000;0.000;2023-06-19T11:09:22;99530.91;;;28.12;35.28
76858;BME280;65830;0.000;0.000;2023-06-19T11:11:48;99531.63;;;28.30;34.72
76858;BME280;65830;0.000;0.000;2023-06-19T11:14:14;99532.56;;;28.13;35.95
76858;BME280;65830;0.000;0.000;2023-06-19T11:16:41;99520.50;;;28.37;35.17
76858;BME280;65830;0.000;0.000;2023-06-19T11:19:08;99524.22;;;28.52;32.71
76858;BME280;65830;0.000;0.000;2023-06-19T11:21:35;99523.69;;;28.56;33.52
76858;BME280;65830;0.000;0.000;2023-06-19T11:24:10;99530.06;;;28.66;32.27
76858;BME280;65830;0.000;0.000;2023-06-19T11:26:47;99514.69;;;28.55;32.61
76858;BME280;65830;0.000;0.000;2023-06-19T11:31:44;99512.50;;;28.57;34.18
76858;BME280;65830;0.000;0.000;2023-06-19T11:34:10;99517.25;;;28.72;33.36
76858;BME280;65830;0.000;0.000;2023-06-19T11:36:37;99511.47;;;29.06;32.01
76858;BME280;65830;0.000;0.000;2023-06-19T11:39:03;99511.56;;;29.16;31.06
76858;BME280;65830;0.000;0.000;2023-06-19T11:41:30;99510.50;;;29.22;31.17
76858;BME280;65830;0.000;0.000;2023-06-19T11:44:03;99514.94;;;29.39;32.72
76858;BME280;65830;0.000;0.000;2023-06-19T11:46:30;99516.38;;;29.57;29.92
76858;BME280;65830;0.000;0.000;2023-06-19T11:49:16;99509.84;;;29.63;29.89
76858;BME280;65830;0.000;0.000;2023-06-19T11:51:43;99504.78;;;30.07;31.40
76858;BME280;65830;0.000;0.000;2023-06-19T11:54:09;99509.47;;;30.33;29.61
76858;BME280;65830;0.000;0.000;2023-06-19T11:56:35;99501.25;;;30.33;31.05
76858;BME280;65830;0.000;0.000;2023-06-19T11:59:01;99502.88;;;30.23;31.31
76858;BME280;65830;0.000;0.000;2023-06-19T12:01:28;99495.47;;;30.19;30.42
76858;BME280;65830;0.000;0.000;2023-06-19T12:03:54;99493.88;;;30.48;29.10
76858;BME280;65830;0.000;0.000;2023-06-19T12:06:20;99495.78;;;30.63;29.20
76858;BME280;65830;0.000;0.000;2023-06-19T12:08:45;99490.03;;;30.49;29.62
76858;BME280;65830;0.000;0.000;2023-06-19T12:11:11;99484.00;;;30.73;29.93
76858;BME280;65830;0.000;0.000;2023-06-19T12:13:39;99502.84;;;31.05;29.40
76858;BME280;65830;0.000;0.000;2023-06-19T12:16:05;99484.22;;;31.13;29.89
76858;BME280;65830;0.000;0.000;2023-06-19T12:18:30;99481.97;;;31.30;28.89
76858;BME280;65830;0.000;0.000;2023-06-19T12:20:56;99484.03;;;31.59;28.26
76858;BME280;65830;0.000;0.000;2023-06-19T12:23:21;99474.66;;;31.70;28.25
76858;BME280;65830;0.000;0.000;2023-06-19T12:25:47;99478.78;;;31.67;28.02
76858;BME280;65830;0.000;0.000;2023-06-19T12:28:12;99480.78;;;32.01;26.87
76858;BME280;65830;0.000;0.000;2023-06-19T12:30:43;99471.13;;;31.64;28.56
76858;BME280;65830;0.000;0.000;2023-06-19T12:33:09;99456.81;;;32.17;29.15
76858;BME280;65830;0.000;0.000;2023-06-19T12:35:35;99460.00;;;32.24;26.09
76858;BME280;65830;0.000;0.000;2023-06-19T12:38:01;99468.28;;;32.83;25.45
76858;BME280;65830;0.000;0.000;2023-06-19T12:40:26;99460.41;;;33.00;25.33
76858;BME280;65830;0.000;0.000;2023-06-19T12:42:52;99455.56;;;33.16;27.79
76858;BME280;65830;0.000;0.000;2023-06-19T12:45:17;99454.19;;;32.90;24.70
76858;BME280;65830;0.000;0.000;2023-06-19T12:47:43;99459.19;;;32.24;25.43
76858;BME280;65830;0.000;0.000;2023-06-19T12:50:08;99454.63;;;32.43;28.74
76858;BME280;65830;0.000;0.000;2023-06-19T12:52:35;99443.72;;;32.92;25.13
76858;BME280;65830;0.000;0.000;2023-06-19T12:55:01;99456.03;;;33.23;23.91
76858;BME280;65830;0.000;0.000;2023-06-19T12:57:27;99442.28;;;32.75;25.71
76858;BME280;65830;0.000;0.000;2023-06-19T12:59:55;99453.41;;;33.08;24.98
76858;BME280;65830;0.000;0.000;2023-06-19T13:02:31;99448.28;;;33.01;26.73
76858;BME280;65830;0.000;0.000;2023-06-19T13:04:57;99448.94;;;33.17;24.40
76858;BME280;65830;0.000;0.000;2023-06-19T13:07:23;99445.59;;;32.96;26.22
76858;BME280;65830;0.000;0.000;2023-06-19T13:09:49;99445.63;;;33.20;26.17
76858;BME280;65830;0.000;0.000;2023-06-19T13:12:14;99449.72;;;33.66;26.00
76858;BME280;65830;0.000;0.000;2023-06-19T13:14:40;99447.22;;;33.83;23.75
76858;BME280;65830;0.000;0.000;2023-06-19T13:17:05;99440.50;;;33.76;24.05